createdAt,value
2023-02-22T12:07:41.841Z,30.8
2023-02-22T12:09:46.381Z,30.37
2023-02-22T12:11:50.917Z,29.99
2023-02-22T12:13:55.414Z,29.87
2023-02-22T12:16:00.162Z,29.64
2023-02-22T12:18:04.681Z,29.48
2023-02-22T12:20:09.091Z,29.45
2023-02-22T12:22:13.575Z,29.27
2023-02-22T12:24:17.990Z,29.1
2023-02-22T12:26:23.560Z,28.8
2023-02-22T12:28:28.277Z,28.71
2023-02-22T12:30:33.071Z,28.65
2023-02-22T12:32:37.824Z,28.38
2023-02-22T12:34:42.797Z,28.29
2023-02-22T12:36:47.405Z,28.19
2023-02-22T12:38:52.021Z,28
2023-02-22T12:40:56.529Z,28.56
2023-02-22T12:43:00.985Z,29.17
2023-02-22T12:45:12.033Z,29.67
2023-02-22T12:47:16.425Z,29.63
2023-02-22T12:49:20.922Z,29.99
2023-02-22T12:51:25.403Z,30.45
2023-02-22T12:53:29.788Z,31.01
2023-02-22T12:55:34.351Z,31.34
2023-02-22T12:57:38.837Z,31.77
2023-02-22T12:59:43.408Z,32.08
2023-02-22T13:01:48.004Z,32.23
2023-02-22T13:03:52.444Z,32.66
2023-02-22T13:05:57.005Z,32.75
2023-02-22T13:08:01.478Z,32.73
2023-02-22T13:10:05.866Z,32.95
2023-02-22T13:12:10.228Z,32.92
2023-02-22T13:14:14.817Z,33.17
2023-02-22T13:16:19.537Z,32.89
2023-02-22T13:18:24.279Z,32.92
2023-02-22T13:20:28.969Z,33.14
2023-02-22T13:22:33.610Z,32.79
2023-02-22T13:24:40.177Z,32.69
2023-02-22T13:26:45.844Z,32.37
2023-02-22T13:28:50.578Z,32.87
2023-02-22T13:30:55.060Z,32.89
2023-02-22T13:32:59.658Z,32.99
2023-02-22T13:35:04.136Z,33
2023-02-22T13:37:08.714Z,33.15
2023-02-22T13:39:13.172Z,33.1
2023-02-22T13:41:18.770Z,32.94
2023-02-22T13:43:23.145Z,32.86
2023-02-22T13:45:27.520Z,32.9
2023-02-22T13:47:31.912Z,32.9
2023-02-22T13:49:36.411Z,33.04
2023-02-22T13:51:40.922Z,32.9
2023-02-22T13:53:45.444Z,32.95
2023-02-22T13:55:49.960Z,33.09
2023-02-22T13:57:54.363Z,33.35
2023-02-22T13:59:59.060Z,33.15
2023-02-22T14:02:03.769Z,33.18
2023-02-22T14:04:08.262Z,33.23
2023-02-22T14:06:12.852Z,33.13
2023-02-22T14:08:17.343Z,33.15
2023-02-22T14:10:21.747Z,33.18
2023-02-22T14:12:26.391Z,33.16
2023-02-22T14:14:30.766Z,33.17
2023-02-22T14:16:35.420Z,33.23
2023-02-22T14:18:39.877Z,33.4
2023-02-22T14:20:44.290Z,33.31
2023-02-22T14:22:50.256Z,33.3
2023-02-22T14:24:54.832Z,33.27
2023-02-22T14:26:59.269Z,33.43
2023-02-22T14:29:03.764Z,33.4
2023-02-22T14:31:08.751Z,33.41
2023-02-22T14:33:13.291Z,33.64
2023-02-22T14:35:49.341Z,33.67
2023-02-22T14:37:54.235Z,33.58
2023-02-22T14:39:58.648Z,33.81
2023-02-22T14:42:03.057Z,34.13
2023-02-22T14:44:07.547Z,34.38
2023-02-22T14:46:15.349Z,34.2
2023-02-22T14:48:20.068Z,34.04
2023-02-22T14:50:24.488Z,33.96
2023-02-22T14:52:28.910Z,34.14
2023-02-22T14:54:33.455Z,34.1
2023-02-22T14:56:37.975Z,34.04
2023-02-22T14:58:42.431Z,34.13
2023-02-22T15:00:46.859Z,33.97
2023-02-22T15:02:51.466Z,34.02
2023-02-22T15:04:56.140Z,33.98
2023-02-22T15:07:00.629Z,34.08
2023-02-22T15:09:05.181Z,34.08
2023-02-22T15:11:09.765Z,34.15
2023-02-22T15:13:14.437Z,34.31
2023-02-22T15:15:18.927Z,34.24
2023-02-22T15:17:23.460Z,34
2023-02-22T15:19:27.962Z,33.87
2023-02-22T15:21:32.461Z,33.82
2023-02-22T15:23:36.975Z,34.01
2023-02-22T15:25:41.818Z,33.81
2023-02-22T15:27:46.269Z,33.64
2023-02-22T15:29:50.867Z,33.49
2023-02-22T15:31:55.872Z,33.55
2023-02-22T15:34:00.376Z,33.25
2023-02-22T15:36:05.315Z,33.4
2023-02-22T15:38:09.744Z,33.87
2023-02-22T15:40:14.192Z,33.89
2023-02-22T15:42:18.600Z,33.61
2023-02-22T15:44:26.110Z,33.7
2023-02-22T15:46:30.644Z,33.58
2023-02-22T15:48:35.110Z,33.67
2023-02-22T15:50:39.524Z,33.64
2023-02-22T15:52:44.076Z,33.7
2023-02-22T15:54:48.508Z,33.76
2023-02-22T15:56:52.901Z,33.78
2023-02-22T15:58:57.509Z,33.82
2023-02-22T16:01:02.336Z,33.81
2023-02-22T16:03:06.734Z,34.02
2023-02-22T16:05:11.167Z,33.68
2023-02-22T16:07:15.633Z,33.71
2023-02-22T16:09:20.049Z,33.67
2023-02-22T16:11:24.991Z,33.72
2023-02-22T16:13:34.746Z,33.63
2023-02-22T16:15:39.250Z,33.57
2023-02-22T16:18:03.631Z,33.71
2023-02-22T16:20:08.090Z,33.67
2023-02-22T16:22:12.573Z,33.64
2023-02-22T16:24:17.890Z,33.5
2023-02-22T16:26:22.315Z,33.6
2023-02-22T16:28:26.784Z,33.54
2023-02-22T16:30:31.862Z,33.5
2023-02-22T16:32:36.571Z,33.44
2023-02-22T16:34:41.208Z,33.6
2023-02-22T16:36:45.695Z,33.49
2023-02-22T16:38:50.243Z,33.6
2023-02-22T16:40:54.760Z,33.55
2023-02-22T16:42:59.162Z,33.54
2023-02-22T16:45:03.589Z,33.55
2023-02-22T16:47:08.109Z,33.48
2023-02-22T16:49:12.531Z,33.56
2023-02-22T16:51:17.051Z,33.45
2023-02-22T16:53:21.645Z,33.69
2023-02-22T16:55:26.045Z,33.62
2023-02-22T16:57:30.567Z,33.78
2023-02-22T16:59:34.964Z,33.67
2023-02-22T17:01:39.646Z,33.64
2023-02-22T17:03:44.141Z,33.6
2023-02-22T17:05:49.121Z,33.61
2023-02-22T17:07:53.629Z,33.55
2023-02-22T17:09:58.180Z,33.46
2023-02-22T17:12:02.587Z,33.4
2023-02-22T17:14:07.144Z,33.54
2023-02-22T17:16:11.726Z,33.53
2023-02-22T17:18:16.378Z,33.47
2023-02-22T17:20:20.860Z,33.5
2023-02-22T17:22:25.451Z,33.6
2023-02-22T17:24:29.862Z,33.69
2023-02-22T17:26:34.404Z,33.69
2023-02-22T17:28:38.952Z,34.21
2023-02-22T17:30:43.703Z,34.51
2023-02-22T17:32:48.128Z,34.63
2023-02-22T17:34:52.550Z,34.59
2023-02-22T17:36:57.079Z,34.74
2023-02-22T17:39:01.501Z,34.59
2023-02-22T17:41:06.229Z,34.7
2023-02-22T17:43:10.826Z,34.89
2023-02-22T17:45:15.256Z,34.78
2023-02-22T17:47:19.887Z,34.74
2023-02-22T17:49:24.357Z,34.92
2023-02-22T17:51:28.927Z,35.1
2023-02-22T17:53:33.490Z,34.88
2023-02-22T17:55:37.987Z,35.09
2023-02-22T17:57:42.447Z,34.96
2023-02-22T17:59:47.064Z,35.1
2023-02-22T18:01:51.658Z,35.31
2023-02-22T18:03:56.152Z,35.54
2023-02-22T18:06:00.948Z,35.49
2023-02-22T18:08:05.352Z,35.51
2023-02-22T18:10:09.790Z,35.6
2023-02-22T18:12:14.217Z,35.52
2023-02-22T18:14:18.797Z,35.54
2023-02-22T18:16:23.985Z,35.76
2023-02-22T18:18:28.568Z,35.54
2023-02-22T18:20:33.146Z,35.78
2023-02-22T18:22:37.674Z,35.8
2023-02-22T18:24:42.161Z,35.96
2023-02-22T18:26:46.813Z,36
2023-02-22T18:28:51.278Z,35.79
2023-02-22T18:30:57.122Z,35.87
2023-02-22T18:33:01.708Z,35.84
2023-02-22T18:35:06.253Z,36.1
2023-02-22T18:37:10.870Z,35.96
2023-02-22T18:39:16.033Z,36.14
2023-02-22T18:41:20.451Z,35.94
2023-02-22T18:43:25.176Z,36.1
2023-02-22T18:45:30.121Z,36.21
2023-02-22T18:47:34.525Z,36.3
2023-02-22T18:49:38.925Z,35.93
2023-02-22T18:51:43.601Z,34.56
2023-02-22T18:53:49.702Z,34.63
2023-02-22T18:55:54.192Z,35.53
2023-02-22T18:57:58.691Z,35.53
2023-02-22T19:00:03.100Z,35.81
2023-02-22T19:02:07.850Z,36.1
2023-02-22T19:04:12.332Z,36.14
2023-02-22T19:06:17.766Z,35.83
2023-02-22T19:08:22.612Z,35.98
2023-02-22T19:10:27.036Z,35.83
2023-02-22T19:12:31.494Z,35.67
2023-02-22T19:14:35.965Z,35.65
2023-02-22T19:16:40.387Z,35.56
2023-02-22T19:18:44.873Z,35.56
2023-02-22T19:20:49.279Z,35.51
2023-02-22T19:22:53.692Z,35.48
2023-02-22T19:24:58.213Z,35.77
2023-02-22T19:27:02.740Z,35.73
2023-02-22T19:29:07.487Z,35.62
2023-02-22T19:31:12.365Z,35.44
2023-02-22T19:33:16.993Z,35.29
2023-02-22T19:35:21.485Z,35.17
2023-02-22T19:37:25.871Z,35.15
2023-02-22T19:39:30.405Z,35.4
2023-02-22T19:41:34.973Z,35.16
2023-02-22T19:43:39.365Z,34.88
2023-02-22T19:45:44.162Z,34.7
2023-02-22T19:47:48.667Z,34.61
2023-02-22T19:49:53.144Z,34.68
2023-02-22T19:51:57.648Z,34.56
2023-02-22T19:54:02.036Z,34.54
2023-02-22T19:56:07.845Z,34.69
2023-02-22T19:58:12.337Z,34.64
2023-02-22T20:00:16.794Z,34.75
2023-02-22T20:02:21.226Z,34.83
2023-02-22T20:04:26.262Z,34.85
2023-02-22T20:06:30.820Z,35.15
2023-02-22T20:08:35.250Z,35.45
2023-02-22T20:10:39.632Z,35.55
2023-02-22T20:12:44.101Z,35.73
2023-02-22T20:14:48.509Z,35.8
2023-02-22T20:16:52.907Z,35.93
2023-02-22T20:18:57.313Z,35.98
2023-02-22T20:21:01.949Z,36.06
2023-02-22T20:23:06.427Z,34.99
2023-02-22T20:25:10.870Z,33.56
2023-02-22T20:27:15.277Z,32.94
2023-02-22T20:29:19.745Z,32.58
2023-02-22T20:31:24.583Z,31.95
2023-02-22T20:33:30.008Z,31.66
2023-02-22T20:35:34.523Z,31.44
2023-02-22T20:37:38.948Z,31.4
2023-02-22T20:39:43.579Z,31.17
2023-02-22T20:41:48.007Z,30.98
2023-02-22T20:43:52.380Z,30.56
2023-02-22T20:45:57.105Z,30.41
2023-02-22T20:48:01.778Z,30.47
2023-02-22T20:50:06.323Z,30.26
2023-02-22T20:52:10.790Z,30.27
2023-02-22T20:54:15.187Z,29.83
2023-02-22T20:56:19.657Z,30.69
2023-02-22T20:58:24.091Z,31.32
2023-02-22T21:00:28.510Z,31.61
2023-02-22T21:02:32.958Z,31.81
2023-02-22T21:04:37.548Z,31.78
2023-02-22T21:06:42.501Z,31.76
2023-02-22T21:08:46.842Z,31.77
2023-02-22T21:10:51.378Z,31.77
2023-02-22T21:12:59.909Z,31.82
2023-02-22T21:15:04.801Z,31.99
2023-02-22T21:17:09.547Z,32.29
2023-02-22T21:19:13.992Z,32.51
2023-02-22T21:21:19.742Z,32.62
2023-02-22T21:23:24.223Z,32.62
2023-02-22T21:25:28.615Z,32.88
2023-02-22T21:27:33.074Z,32.98
2023-02-22T21:29:37.614Z,33.09
2023-02-22T21:31:42.933Z,33.87
2023-02-22T21:33:47.476Z,33.56
2023-02-22T21:35:51.873Z,33.73
2023-02-22T21:37:56.323Z,33.35
2023-02-22T21:40:00.717Z,33.65
2023-02-22T21:42:05.254Z,33.72
2023-02-22T21:44:09.847Z,33.65
2023-02-22T21:46:14.468Z,34.01
2023-02-22T21:48:18.917Z,34.14
2023-02-22T21:50:23.325Z,34.09
2023-02-22T21:52:27.745Z,34.28
2023-02-22T21:54:32.165Z,31.8
2023-02-22T21:56:36.590Z,29.57
2023-02-22T21:58:41.109Z,28.85
2023-02-22T22:00:45.508Z,28.22
2023-02-22T22:02:50.231Z,27.76
2023-02-22T22:04:54.642Z,27.54
2023-02-22T22:06:59.071Z,27.24
2023-02-22T22:09:03.549Z,27.21
2023-02-22T22:11:07.938Z,26.9
2023-02-22T22:13:12.420Z,26.72
2023-02-22T22:15:16.926Z,26.56
2023-02-22T22:17:21.331Z,26.16
2023-02-22T22:19:25.767Z,26.06
2023-02-22T22:21:30.170Z,25.95
2023-02-22T22:23:34.549Z,25.86
2023-02-22T22:25:39.045Z,26.05
2023-02-22T22:27:43.548Z,25.7
2023-02-22T22:29:48.025Z,25.63
2023-02-22T22:31:53.224Z,25.65
2023-02-22T22:33:57.849Z,25.61
2023-02-22T22:36:02.304Z,25.46
2023-02-22T22:38:06.830Z,26.18
2023-02-22T22:40:11.229Z,26.2
2023-02-22T22:42:15.614Z,25.9
2023-02-22T22:44:20.016Z,26.26
2023-02-22T22:46:24.660Z,27.95
2023-02-22T22:48:29.045Z,28.25
2023-02-22T22:50:33.480Z,28.68
2023-02-22T22:52:37.974Z,29.08
2023-02-22T22:54:42.359Z,29.47
2023-02-22T22:56:46.735Z,29.69
2023-02-22T22:58:51.147Z,30.11
2023-02-22T23:00:55.553Z,30.16
2023-02-22T23:03:00.331Z,30.31
2023-02-22T23:05:04.813Z,30.42
2023-02-22T23:07:09.256Z,30.36
2023-02-22T23:09:13.831Z,30.57
2023-02-22T23:11:19.485Z,30.8
2023-02-22T23:13:23.981Z,30.82
2023-02-22T23:15:28.414Z,30.84
2023-02-22T23:17:33.593Z,30.93
2023-02-22T23:19:38.038Z,31.05
2023-02-22T23:21:42.462Z,31.26
2023-02-22T23:23:46.843Z,31.63
2023-02-22T23:25:51.324Z,31.67
2023-02-22T23:27:55.728Z,32.01
